createdAt,value
2018-06-25T00:00:29.622Z,61.45
2018-06-25T00:01:29.576Z,61.25
2018-06-25T00:02:29.572Z,61.55
2018-06-25T00:03:29.559Z,61.93
2018-06-25T00:04:29.493Z,62.03
2018-06-25T00:05:29.484Z,62.12
2018-06-25T00:06:29.468Z,62.32
2018-06-25T00:07:29.413Z,62.03
2018-06-25T00:08:29.375Z,62.99
2018-06-25T00:09:29.353Z,62.70
2018-06-25T00:10:29.372Z,62.80
2018-06-25T00:11:29.283Z,63.18
2018-06-25T00:12:29.264Z,63.25
2018-06-25T00:13:29.223Z,63.34
2018-06-25T00:14:29.190Z,63.18
2018-06-25T00:15:29.161Z,63.18
2018-06-25T00:16:29.140Z,63.06
2018-06-25T00:17:29.113Z,63.34
2018-06-25T00:20:29.013Z,63.82
2018-06-25T00:21:28.991Z,64.31
2018-06-25T00:22:28.943Z,64.21
2018-06-25T00:23:28.920Z,64.40
2018-06-25T00:24:28.929Z,64.69
2018-06-25T00:25:28.880Z,64.50
2018-06-25T00:26:28.830Z,64.98
2018-06-25T00:27:28.791Z,64.59
2018-06-25T00:28:28.771Z,64.79
2018-06-25T00:29:28.740Z,64.59
2018-06-25T00:30:28.705Z,64.31
2018-06-25T00:31:28.678Z,64.31
2018-06-25T00:32:28.649Z,64.50
2018-06-25T00:33:28.621Z,64.50
2018-06-25T00:34:28.785Z,64.59
2018-06-25T00:35:28.554Z,64.76
2018-06-25T00:36:28.561Z,64.76
2018-06-25T00:37:28.486Z,64.66
2018-06-25T00:38:28.456Z,64.86
2018-06-25T00:39:28.453Z,64.31
2018-06-25T00:40:28.392Z,64.89
2018-06-25T00:41:28.373Z,64.12
2018-06-25T00:42:28.345Z,63.34
2018-06-25T00:43:28.310Z,63.54
2018-06-25T00:44:28.278Z,63.34
2018-06-25T00:45:28.394Z,63.06
2018-06-25T00:46:28.222Z,62.96
2018-06-25T00:47:28.187Z,62.67
2018-06-25T00:48:28.156Z,63.44
2018-06-25T00:49:28.121Z,63.15
2018-06-25T00:50:28.098Z,63.82
2018-06-25T00:51:28.062Z,63.64
2018-06-25T00:52:28.025Z,64.12
2018-06-25T00:53:28.004Z,63.54
2018-06-25T00:54:27.963Z,63.34
2018-06-25T00:55:27.932Z,64.21
2018-06-25T00:56:28.101Z,64.79
2018-06-25T00:57:27.871Z,64.31
2018-06-25T00:58:27.844Z,64.12
2018-06-25T00:59:27.818Z,64.31
2018-06-25T01:00:27.782Z,64.50
2018-06-25T01:01:27.747Z,64.28
2018-06-25T01:02:27.723Z,64.12
2018-06-25T01:03:27.687Z,64.47
2018-06-25T01:04:27.655Z,64.47
2018-06-25T01:05:27.636Z,64.79
2018-06-25T01:06:27.712Z,64.76
2018-06-25T01:07:27.566Z,64.69
2018-06-25T01:08:27.539Z,64.76
2018-06-25T01:09:27.502Z,64.86
2018-06-25T01:10:27.497Z,64.86
2018-06-25T01:11:27.447Z,65.14
2018-06-25T01:12:27.411Z,64.56
2018-06-25T01:13:27.381Z,64.56
2018-06-25T01:14:27.356Z,64.47
2018-06-25T01:15:27.323Z,64.47
2018-06-25T01:16:27.304Z,64.86
2018-06-25T01:17:27.257Z,64.86
2018-06-25T01:18:27.226Z,64.86
2018-06-25T01:19:27.201Z,65.33
2018-06-25T01:20:27.167Z,65.43
2018-06-25T01:21:27.126Z,65.33
2018-06-25T01:22:27.117Z,65.63
2018-06-25T01:23:27.071Z,65.81
2018-06-25T01:24:27.041Z,66.01
2018-06-25T01:25:27.005Z,66.20
2018-06-25T01:26:26.977Z,66.01
2018-06-25T01:27:26.967Z,66.30
2018-06-25T01:28:27.324Z,66.49
2018-06-25T01:29:26.891Z,67.07
2018-06-25T01:30:26.856Z,67.16
2018-06-25T01:31:26.831Z,67.16
2018-06-25T01:32:26.787Z,67.07
2018-06-25T01:33:26.784Z,66.97
2018-06-25T01:35:26.851Z,67.16
2018-06-25T01:36:26.662Z,67.03
2018-06-25T01:37:26.632Z,67.03
2018-06-25T01:38:26.602Z,67.32
2018-06-25T01:39:26.599Z,67.51
2018-06-25T01:40:26.550Z,67.71
2018-06-25T01:41:26.515Z,67.32
2018-06-25T01:42:26.493Z,67.71
2018-06-25T01:43:26.458Z,68.19
2018-06-25T01:44:26.417Z,67.99
2018-06-25T01:45:26.396Z,67.61
2018-06-25T01:46:26.354Z,67.42
2018-06-25T01:47:26.335Z,68.09
2018-06-25T01:48:26.303Z,68.09
2018-06-25T01:49:26.325Z,67.90
2018-06-25T01:50:26.353Z,67.42
2018-06-25T01:51:26.218Z,67.80
2018-06-25T01:52:26.180Z,67.99
2018-06-25T01:53:26.140Z,67.99
2018-06-25T01:54:26.114Z,68.38
2018-06-25T01:55:26.101Z,68.57
2018-06-25T01:56:26.053Z,68.67
2018-06-25T01:57:26.026Z,68.29
2018-06-25T01:58:25.987Z,68.57
2018-06-25T01:59:25.960Z,68.76
2018-06-25T02:00:25.926Z,68.29
2018-06-25T02:01:26.006Z,68.29
2018-06-25T02:02:25.857Z,68.48
2018-06-25T02:03:25.827Z,68.76
2018-06-25T02:04:25.796Z,68.83
2018-06-25T02:05:25.768Z,68.76
2018-06-25T02:06:25.742Z,69.02
2018-06-25T02:07:25.849Z,69.06
2018-06-25T02:08:25.701Z,68.96
2018-06-25T02:09:25.641Z,68.83
2018-06-25T02:10:25.614Z,68.54
2018-06-25T02:11:25.587Z,68.73
2018-06-25T02:12:25.546Z,68.83
2018-06-25T02:13:25.514Z,68.83
2018-06-25T02:14:25.492Z,69.31
2018-06-25T02:15:25.487Z,68.92
2018-06-25T02:16:25.433Z,68.92
2018-06-25T02:17:25.401Z,69.02
2018-06-25T02:18:25.373Z,68.73
2018-06-25T02:19:25.330Z,68.73
2018-06-25T02:20:25.353Z,69.02
2018-06-25T02:21:25.267Z,69.02
2018-06-25T02:22:25.233Z,68.83
2018-06-25T02:23:25.213Z,69.60
2018-06-25T02:24:25.175Z,69.50
2018-06-25T02:25:25.142Z,69.60
2018-06-25T02:26:25.107Z,69.40
2018-06-25T02:27:25.092Z,69.21
2018-06-25T02:28:25.049Z,69.40
2018-06-25T02:29:25.013Z,69.69
2018-06-25T02:30:24.991Z,69.69
2018-06-25T02:31:24.952Z,69.60
2018-06-25T02:32:24.926Z,69.21
2018-06-25T02:33:24.921Z,69.60
2018-06-25T02:34:24.866Z,69.69
2018-06-25T02:35:24.828Z,69.69
2018-06-25T02:36:24.793Z,69.40
2018-06-25T02:37:24.770Z,69.79
2018-06-25T02:38:24.738Z,69.79
2018-06-25T02:39:24.697Z,69.69
2018-06-25T02:40:24.694Z,69.69
2018-06-25T02:41:24.659Z,69.31
2018-06-25T02:42:24.607Z,69.40
2018-06-25T02:43:24.572Z,69.40
2018-06-25T02:44:24.742Z,69.60
2018-06-25T02:45:24.518Z,69.31
2018-06-25T02:46:24.494Z,69.02
2018-06-25T02:47:24.447Z,69.79
2018-06-25T02:48:24.418Z,69.50
2018-06-25T02:49:24.392Z,69.40
2018-06-25T02:50:24.360Z,69.40
2018-06-25T02:51:24.325Z,69.69
2018-06-25T02:52:24.292Z,69.98
2018-06-25T02:53:24.263Z,69.79
2018-06-25T02:54:24.230Z,69.69
2018-06-25T02:55:24.200Z,69.79
2018-06-25T02:56:24.170Z,69.89
2018-06-25T02:57:24.132Z,69.89
2018-06-25T02:58:24.106Z,69.89
2018-06-25T02:59:24.067Z,68.92
2018-06-25T03:00:24.044Z,69.60
2018-06-25T03:01:24.033Z,70.27
2018-06-25T03:02:24.025Z,69.69
2018-06-25T03:03:23.960Z,70.17
2018-06-25T03:04:23.917Z,69.98
2018-06-25T03:05:23.881Z,69.02
2018-06-25T03:06:23.855Z,69.21
2018-06-25T03:07:23.825Z,69.60
2018-06-25T03:08:23.814Z,69.21
2018-06-25T03:09:23.754Z,69.60
2018-06-25T03:10:23.721Z,69.40
2018-06-25T03:11:23.727Z,69.50
2018-06-25T03:12:23.660Z,69.50
2018-06-25T03:13:23.630Z,70.17
2018-06-25T03:14:23.596Z,69.89
2018-06-25T03:15:23.713Z,69.60
2018-06-25T03:16:23.537Z,69.79
2018-06-25T03:17:23.502Z,69.98
2018-06-25T03:18:23.477Z,69.89
2018-06-25T03:19:23.448Z,69.89
2018-06-25T03:20:23.406Z,69.79
2018-06-25T03:21:23.375Z,69.89
2018-06-25T03:22:23.342Z,70.17
2018-06-25T03:23:23.309Z,70.07
2018-06-25T03:24:23.285Z,69.89
2018-06-25T03:25:23.245Z,69.79
2018-06-25T03:26:23.230Z,69.75
2018-06-25T03:27:23.186Z,70.46
2018-06-25T03:28:23.154Z,69.79
2018-06-25T03:29:23.126Z,69.98
2018-06-25T03:30:23.092Z,69.69
2018-06-25T03:31:23.059Z,70.27
2018-06-25T03:32:23.026Z,69.98
2018-06-25T03:33:22.992Z,70.33
2018-06-25T03:34:22.960Z,70.43
2018-06-25T03:35:22.928Z,70.72
2018-06-25T03:36:22.921Z,71.00
2018-06-25T03:37:22.873Z,70.81
2018-06-25T03:38:22.851Z,70.90
2018-06-25T03:39:22.805Z,71.00
2018-06-25T03:40:22.772Z,71.10
2018-06-25T03:41:22.746Z,71.10
2018-06-25T03:42:22.719Z,71.10
2018-06-25T03:43:22.721Z,71.39
2018-06-25T03:44:22.651Z,71.10
2018-06-25T03:45:22.612Z,71.19
2018-06-25T03:46:22.582Z,70.90
2018-06-25T03:47:22.576Z,71.10
2018-06-25T03:48:22.517Z,70.90
2018-06-25T03:49:22.482Z,70.90
2018-06-25T03:50:22.459Z,71.10
2018-06-25T03:51:22.579Z,70.90
2018-06-25T03:52:22.407Z,71.48
2018-06-25T03:53:22.361Z,71.58
2018-06-25T03:54:22.354Z,71.58
2018-06-25T03:55:22.407Z,70.90
2018-06-25T03:56:22.264Z,70.81
2018-06-25T03:57:22.235Z,71.00
2018-06-25T03:58:22.201Z,71.19
2018-06-25T03:59:22.173Z,71.67
2018-06-25T04:00:22.148Z,71.29
2018-06-25T04:01:22.101Z,71.00
2018-06-25T04:02:22.085Z,71.00
2018-06-25T04:03:22.048Z,71.10
2018-06-25T04:04:22.045Z,70.62
2018-06-25T04:05:21.984Z,70.72
2018-06-25T04:06:21.946Z,70.72
2018-06-25T04:07:21.917Z,70.72
2018-06-25T04:08:21.878Z,70.52
2018-06-25T04:09:21.854Z,70.72
2018-06-25T04:10:21.817Z,70.72
2018-06-25T04:11:21.795Z,70.52
2018-06-25T04:12:21.749Z,70.62
2018-06-25T04:13:21.723Z,70.81
2018-06-25T04:14:21.690Z,71.19
2018-06-25T04:15:21.662Z,71.00
2018-06-25T04:16:21.627Z,71.00
2018-06-25T04:17:21.596Z,70.72
2018-06-25T04:18:21.564Z,70.81
2018-06-25T04:19:21.535Z,70.81
2018-06-25T04:20:21.497Z,71.39
2018-06-25T04:21:21.474Z,70.72
2018-06-25T04:22:21.433Z,70.90
2018-06-25T04:23:21.401Z,71.16
2018-06-25T04:24:21.369Z,71.00
2018-06-25T04:25:21.336Z,71.77
2018-06-25T04:26:21.311Z,72.16
2018-06-25T04:27:21.287Z,72.44
2018-06-25T04:28:21.244Z,72.25
2018-06-25T04:29:21.216Z,72.83
2018-06-25T04:30:21.177Z,73.21
2018-06-25T04:31:21.148Z,72.92
2018-06-25T04:32:21.121Z,72.16
2018-06-25T04:33:21.129Z,72.25
2018-06-25T04:34:21.047Z,72.34
2018-06-25T04:35:21.016Z,72.73
2018-06-25T04:36:20.983Z,72.54
2018-06-25T04:37:21.111Z,72.06
2018-06-25T04:38:20.919Z,72.54
2018-06-25T04:39:20.892Z,71.67
2018-06-25T04:40:20.895Z,71.58
2018-06-25T04:41:20.834Z,71.77
2018-06-25T04:42:20.800Z,71.77
2018-06-25T04:43:20.777Z,72.06
2018-06-25T04:44:20.731Z,71.58
2018-06-25T04:45:20.759Z,71.10
2018-06-25T04:46:20.668Z,70.43
2018-06-25T04:47:20.632Z,70.14
2018-06-25T04:48:20.606Z,70.52
2018-06-25T04:49:20.573Z,70.52
2018-06-25T04:50:20.539Z,70.23
2018-06-25T04:51:20.508Z,70.04
2018-06-25T04:52:20.470Z,69.56
2018-06-25T04:53:20.648Z,69.37
2018-06-25T04:54:20.411Z,69.85
2018-06-25T04:55:20.377Z,69.43
2018-06-25T04:56:20.457Z,69.62
2018-06-25T04:57:20.310Z,69.14
2018-06-25T04:58:20.279Z,69.81
2018-06-25T04:59:20.249Z,69.53
2018-06-25T05:00:20.218Z,69.34
2018-06-25T05:01:20.185Z,70.49
2018-06-25T05:02:20.165Z,70.74
2018-06-25T05:03:20.119Z,70.84
2018-06-25T05:04:20.093Z,71.70
2018-06-25T05:05:20.061Z,71.70
2018-06-25T05:06:20.031Z,71.31
2018-06-25T05:07:19.988Z,71.31
2018-06-25T05:08:19.970Z,72.24
2018-06-25T05:09:19.931Z,72.33
2018-06-25T05:10:19.917Z,73.30
2018-06-25T05:11:19.870Z,73.58
2018-06-25T05:12:19.826Z,73.77
2018-06-25T05:13:19.797Z,74.44
2018-06-25T05:14:19.764Z,75.12
2018-06-25T05:15:19.737Z,74.93
2018-06-25T05:16:19.701Z,75.50
2018-06-25T05:17:19.668Z,75.89
2018-06-25T05:19:19.614Z,75.60
2018-06-25T05:20:19.567Z,75.60
2018-06-25T05:21:19.537Z,75.82
2018-06-25T05:22:19.521Z,76.40
2018-06-25T05:23:19.475Z,76.12
2018-06-25T05:24:19.450Z,76.27
2018-06-25T05:25:19.409Z,76.12
2018-06-25T05:26:19.377Z,76.21
2018-06-25T05:27:19.346Z,76.21
2018-06-25T05:28:19.311Z,76.02
2018-06-25T05:29:19.287Z,76.40
2018-06-25T05:30:19.249Z,75.63
2018-06-25T05:31:19.214Z,74.87
2018-06-25T05:32:19.181Z,75.15
2018-06-25T05:33:19.153Z,75.45
2018-06-25T05:34:19.119Z,75.35
2018-06-25T05:35:19.085Z,74.73
2018-06-25T05:36:19.058Z,75.35
2018-06-25T05:37:19.025Z,75.60
2018-06-25T05:38:18.990Z,75.25
2018-06-25T05:39:18.954Z,75.63
2018-06-25T05:40:18.919Z,75.45
2018-06-25T05:41:18.893Z,74.93
2018-06-25T05:42:18.858Z,75.06
2018-06-25T05:43:18.825Z,75.40
2018-06-25T05:44:18.792Z,75.31
2018-06-25T05:45:18.762Z,76.17
2018-06-25T05:46:18.729Z,76.27
2018-06-25T05:47:18.693Z,75.98
2018-06-25T05:48:18.663Z,75.98
2018-06-25T05:49:18.632Z,75.60
2018-06-25T05:50:18.598Z,75.31
2018-06-25T05:51:18.563Z,75.06
2018-06-25T05:52:18.588Z,74.29
2018-06-25T05:53:18.500Z,74.16
2018-06-25T05:54:18.467Z,74.87
2018-06-25T05:55:18.434Z,75.50
2018-06-25T05:56:18.406Z,75.50
2018-06-25T05:57:18.375Z,75.63
2018-06-25T05:58:18.342Z,75.35
2018-06-25T05:59:18.304Z,75.15
2018-06-25T06:00:18.269Z,75.15
2018-06-25T06:01:18.239Z,75.35
2018-06-25T06:02:18.209Z,75.73
2018-06-25T06:03:18.175Z,75.63
2018-06-25T06:04:18.140Z,75.45
2018-06-25T06:05:18.510Z,75.02
2018-06-25T06:06:18.081Z,75.21
2018-06-25T06:07:18.048Z,75.45
2018-06-25T06:08:18.014Z,75.25
2018-06-25T06:09:18.546Z,74.68
2018-06-25T06:10:17.946Z,73.87
2018-06-25T06:11:18.114Z,73.58
2018-06-25T06:12:17.880Z,73.87
2018-06-25T06:13:17.849Z,73.72
2018-06-25T06:14:17.821Z,73.77
2018-06-25T06:15:17.783Z,74.16
2018-06-25T06:16:18.087Z,73.87
2018-06-25T06:18:17.692Z,74.48
2018-06-25T06:19:17.653Z,74.54
2018-06-25T06:20:17.620Z,74.35
2018-06-25T06:21:17.589Z,74.93
2018-06-25T06:22:17.757Z,74.26
2018-06-25T06:23:17.520Z,75.02
2018-06-25T06:24:17.491Z,75.02
2018-06-25T06:25:17.458Z,75.40
2018-06-25T06:26:17.476Z,75.98
2018-06-25T06:27:17.394Z,76.07
2018-06-25T06:28:17.364Z,76.46
2018-06-25T06:29:17.327Z,76.17
2018-06-25T06:30:17.320Z,76.27
2018-06-25T06:31:17.265Z,76.94
2018-06-25T06:32:17.228Z,77.13
2018-06-25T06:33:17.195Z,77.23
2018-06-25T06:34:17.161Z,76.75
2018-06-25T06:35:17.130Z,76.94
2018-06-25T06:36:17.095Z,77.80
2018-06-25T06:37:17.063Z,78.38
2018-06-25T06:38:17.033Z,78.47
2018-06-25T06:39:16.999Z,78.28
2018-06-25T06:40:16.965Z,78.15
2018-06-25T06:41:16.937Z,78.19
2018-06-25T06:42:16.911Z,77.90
2018-06-25T06:43:16.868Z,78.57
2018-06-25T06:44:16.834Z,78.25
2018-06-25T06:45:16.801Z,78.47
2018-06-25T06:46:16.768Z,78.77
2018-06-25T06:47:16.744Z,78.47
2018-06-25T06:48:16.700Z,78.47
2018-06-25T06:49:16.671Z,78.28
2018-06-25T06:50:16.636Z,78.19
2018-06-25T06:51:16.604Z,78.28
2018-06-25T06:52:16.571Z,78.38
2018-06-25T06:53:16.635Z,78.38
2018-06-25T06:55:16.476Z,78.47
2018-06-25T06:56:16.441Z,77.80
2018-06-25T06:57:16.409Z,78.57
2018-06-25T06:58:16.469Z,78.67
2018-06-25T06:59:16.347Z,78.38
2018-06-25T07:00:16.314Z,78.38
2018-06-25T07:01:16.277Z,78.34
2018-06-25T07:02:16.244Z,78.47
2018-06-25T07:03:16.209Z,78.63
2018-06-25T07:04:16.190Z,78.72
2018-06-25T07:05:16.150Z,78.72
2018-06-25T07:06:16.119Z,78.34
2018-06-25T07:07:16.080Z,78.25
2018-06-25T07:08:16.054Z,78.63
2018-06-25T07:09:16.011Z,78.44
2018-06-25T07:10:16.040Z,78.53
2018-06-25T07:11:15.959Z,78.53
2018-06-25T07:12:15.916Z,78.72
2018-06-25T07:13:15.889Z,78.92
2018-06-25T07:14:15.856Z,78.92
2018-06-25T07:15:15.826Z,78.72
2018-06-25T07:16:15.787Z,78.63
2018-06-25T07:17:15.756Z,78.82
2018-06-25T07:18:15.722Z,78.72
2018-06-25T07:19:15.684Z,78.92
2018-06-25T07:20:15.657Z,79.39
2018-06-25T07:21:15.623Z,79.39
2018-06-25T07:22:15.592Z,79.16
2018-06-25T07:23:15.554Z,78.97
2018-06-25T07:24:15.531Z,79.30
2018-06-25T07:25:15.501Z,79.39
2018-06-25T07:26:15.459Z,79.97
2018-06-25T07:27:15.424Z,79.83
2018-06-25T07:28:15.390Z,79.78
2018-06-25T07:29:15.423Z,79.97
2018-06-25T07:30:15.331Z,79.88
2018-06-25T07:31:15.291Z,80.07
2018-06-25T07:32:15.261Z,80.07
2018-06-25T07:33:15.236Z,80.07
2018-06-25T07:34:15.205Z,80.26
2018-06-25T07:35:15.160Z,80.07
2018-06-25T07:36:15.528Z,79.68
2018-06-25T07:37:15.096Z,79.11
2018-06-25T07:38:15.074Z,79.30
2018-06-25T07:39:15.028Z,79.30
2018-06-25T07:40:14.995Z,79.11
2018-06-25T07:41:14.963Z,79.30
2018-06-25T07:42:15.130Z,79.39
2018-06-25T07:43:14.902Z,79.01
2018-06-25T07:44:14.872Z,79.01
2018-06-25T07:45:14.838Z,78.53
2018-06-25T07:46:14.801Z,78.34
2018-06-25T07:47:14.873Z,78.44
2018-06-25T07:48:14.734Z,78.25
2018-06-25T07:49:14.697Z,78.15
2018-06-25T07:50:14.670Z,78.34
2018-06-25T07:51:14.639Z,78.15
2018-06-25T07:52:14.605Z,78.15
2018-06-25T07:53:14.831Z,78.40
2018-06-25T07:54:14.532Z,78.92
2018-06-25T07:55:14.501Z,79.01
2018-06-25T07:56:14.470Z,79.21
2018-06-25T07:57:14.437Z,78.82
2018-06-25T07:58:14.402Z,78.82
2018-06-25T07:59:14.435Z,78.92
2018-06-25T08:00:14.342Z,78.78
2018-06-25T08:01:14.311Z,78.88
2018-06-25T08:02:14.275Z,78.59
2018-06-25T08:04:14.204Z,78.30
2018-06-25T08:05:14.169Z,78.20
2018-06-25T08:06:14.142Z,78.40
2018-06-25T08:07:14.105Z,78.69
2018-06-25T08:08:14.069Z,78.40
2018-06-25T08:09:14.195Z,78.30
2018-06-25T08:10:14.037Z,78.11
2018-06-25T08:11:13.973Z,78.59
2018-06-25T08:12:13.941Z,78.69
2018-06-25T08:13:13.903Z,78.59
2018-06-25T08:14:13.872Z,79.36
2018-06-25T08:15:13.836Z,79.16
2018-06-25T08:16:13.831Z,79.83
2018-06-25T08:17:13.772Z,80.03
2018-06-25T08:18:13.741Z,80.12
2018-06-25T08:19:13.709Z,80.12
2018-06-25T08:20:13.678Z,80.03
2018-06-25T08:21:13.646Z,79.93
2018-06-25T08:22:13.605Z,80.03
2018-06-25T08:23:13.578Z,80.12
2018-06-25T08:24:13.540Z,80.03
2018-06-25T08:25:13.507Z,80.12
2018-06-25T08:26:13.486Z,80.41
2018-06-25T08:27:13.442Z,80.32
2018-06-25T08:28:13.407Z,80.22
2018-06-25T08:29:13.374Z,80.03
2018-06-25T08:30:13.346Z,79.93
2018-06-25T08:31:13.710Z,80.70
2018-06-25T08:32:13.277Z,80.12
2018-06-25T08:33:13.248Z,80.22
2018-06-25T08:34:13.283Z,80.12
2018-06-25T08:35:13.183Z,79.36
2018-06-25T08:36:13.144Z,79.55
2018-06-25T08:37:13.115Z,79.45
2018-06-25T08:38:13.079Z,79.93
2018-06-25T08:39:13.044Z,80.12
2018-06-25T08:40:13.080Z,79.83
2018-06-25T08:41:12.977Z,78.97
2018-06-25T08:42:12.948Z,79.45
2018-06-25T08:43:12.908Z,80.12
2018-06-25T08:44:12.879Z,79.36
2018-06-25T08:45:12.894Z,79.55
2018-06-25T08:46:12.827Z,79.55
2018-06-25T08:47:12.783Z,79.36
2018-06-25T08:48:12.771Z,79.64
2018-06-25T08:49:12.709Z,79.07
2018-06-25T08:50:12.676Z,79.07
2018-06-25T08:51:12.654Z,79.16
2018-06-25T08:52:12.611Z,79.26
2018-06-25T08:53:12.577Z,79.07
2018-06-25T08:54:12.543Z,79.26
2018-06-25T08:55:12.517Z,79.26
2018-06-25T08:56:12.486Z,78.97
2018-06-25T08:57:12.448Z,79.07
2018-06-25T08:58:12.561Z,79.16
2018-06-25T08:59:12.381Z,79.16
2018-06-25T09:00:12.343Z,79.07
2018-06-25T09:01:12.311Z,79.16
2018-06-25T09:02:12.282Z,79.36
2018-06-25T09:03:12.273Z,79.16
2018-06-25T09:04:12.229Z,78.78
2018-06-25T09:05:12.198Z,79.26
2018-06-25T09:06:12.151Z,79.26
2018-06-25T09:07:12.109Z,78.88
2018-06-25T09:08:12.079Z,79.45
2018-06-25T09:09:12.046Z,79.26
2018-06-25T09:10:12.012Z,79.16
2018-06-25T09:11:11.978Z,79.36
2018-06-25T09:12:11.957Z,79.45
2018-06-25T09:13:11.912Z,79.26
2018-06-25T09:14:11.881Z,79.26
2018-06-25T09:15:11.898Z,79.55
2018-06-25T09:16:11.810Z,79.16
2018-06-25T09:17:11.785Z,79.26
2018-06-25T09:18:11.749Z,78.97
2018-06-25T09:19:11.736Z,78.53
2018-06-25T09:20:11.679Z,78.30
2018-06-25T09:21:11.644Z,77.63
2018-06-25T09:22:11.668Z,76.86
2018-06-25T09:23:11.576Z,77.44
2018-06-25T09:24:11.549Z,77.82
2018-06-25T09:25:11.517Z,77.73
2018-06-25T09:26:11.487Z,77.44
2018-06-25T09:27:11.448Z,77.73
2018-06-25T09:28:11.421Z,77.44
2018-06-25T09:29:11.383Z,76.77
2018-06-25T09:30:11.348Z,76.00
2018-06-25T09:31:11.310Z,76.10
2018-06-25T09:32:11.279Z,76.48
2018-06-25T09:33:11.245Z,76.19
2018-06-25T09:34:11.212Z,75.48
2018-06-25T09:35:11.212Z,75.58
2018-06-25T09:36:11.143Z,75.29
2018-06-25T09:37:11.114Z,75.68
2018-06-25T09:38:11.085Z,75.96
2018-06-25T09:39:11.046Z,76.44
2018-06-25T09:40:11.016Z,76.15
2018-06-25T09:41:11.055Z,77.02
2018-06-25T09:42:10.947Z,76.73
2018-06-25T09:43:10.913Z,77.50
2018-06-25T09:44:10.879Z,78.27
2018-06-25T09:45:10.843Z,78.64
2018-06-25T09:46:10.811Z,77.97
2018-06-25T09:47:10.777Z,78.45
2018-06-25T09:48:10.743Z,79.13
2018-06-25T09:49:10.742Z,79.41
2018-06-25T09:50:10.732Z,80.08
2018-06-25T09:51:10.643Z,79.22
2018-06-25T09:52:10.613Z,78.45
2018-06-25T09:53:10.576Z,79.03
2018-06-25T09:54:10.543Z,79.99
2018-06-25T09:55:10.807Z,80.47
2018-06-25T09:56:10.480Z,80.18
2018-06-25T09:57:10.453Z,80.08
2018-06-25T09:58:10.410Z,79.89
2018-06-25T09:59:10.372Z,80.08
2018-06-25T10:00:10.341Z,80.66
2018-06-25T10:01:10.313Z,80.27
2018-06-25T10:02:10.285Z,80.27
2018-06-25T10:03:10.242Z,80.94
2018-06-25T10:04:10.218Z,81.71
2018-06-25T10:05:10.187Z,81.81
2018-06-25T10:06:10.445Z,82.76
2018-06-25T10:07:10.103Z,83.34
2018-06-25T10:08:10.073Z,82.86
2018-06-25T10:09:10.040Z,83.53
2018-06-25T10:10:10.008Z,83.63
2018-06-25T10:11:09.974Z,83.63
2018-06-25T10:12:10.087Z,83.34
2018-06-25T10:13:09.908Z,83.34
2018-06-25T10:14:09.874Z,83.92
2018-06-25T10:15:09.849Z,83.34
2018-06-25T10:16:09.809Z,83.48
2018-06-25T10:17:09.776Z,83.38
2018-06-25T10:18:09.738Z,83.76
2018-06-25T10:19:09.711Z,83.29
2018-06-25T10:20:09.675Z,83.19
2018-06-25T10:21:09.640Z,83.48
2018-06-25T10:22:09.618Z,83.76
2018-06-25T10:23:09.783Z,84.05
2018-06-25T10:24:09.547Z,83.38
2018-06-25T10:25:09.518Z,83.48
2018-06-25T10:26:09.475Z,83.58
2018-06-25T10:27:09.442Z,83.48
2018-06-25T10:29:09.373Z,82.56
2018-06-25T10:30:09.344Z,82.52
2018-06-25T10:31:09.309Z,82.65
2018-06-25T10:32:09.272Z,82.75
2018-06-25T10:33:09.242Z,82.75
2018-06-25T10:34:09.216Z,82.65
2018-06-25T10:35:09.182Z,82.75
2018-06-25T10:36:09.142Z,82.85
2018-06-25T10:37:09.114Z,82.08
2018-06-25T10:38:09.083Z,82.46
2018-06-25T10:39:09.052Z,81.70
2018-06-25T10:40:09.016Z,82.08
2018-06-25T10:41:08.988Z,82.75
2018-06-25T10:42:08.994Z,82.75
2018-06-25T10:43:08.918Z,81.89
2018-06-25T10:44:08.891Z,82.37
2018-06-25T10:45:08.845Z,81.98
2018-06-25T10:46:08.819Z,82.21
2018-06-25T10:47:08.789Z,82.08
2018-06-25T10:48:08.753Z,82.12
2018-06-25T10:49:08.725Z,82.03
2018-06-25T10:50:08.701Z,82.03
2018-06-25T10:51:08.670Z,82.12
2018-06-25T10:52:08.624Z,82.70
2018-06-25T10:53:08.598Z,82.79
2018-06-25T10:54:08.580Z,82.79
2018-06-25T10:55:08.878Z,82.89
2018-06-25T10:56:08.494Z,82.74
2018-06-25T10:57:08.468Z,82.26
2018-06-25T10:58:08.483Z,82.07
2018-06-25T10:59:08.396Z,81.68
2018-06-25T11:00:08.573Z,81.97
2018-06-25T11:01:08.411Z,81.49
2018-06-25T11:02:08.306Z,81.72
2018-06-25T11:03:08.268Z,81.78
2018-06-25T11:04:08.281Z,81.49
2018-06-25T11:05:08.205Z,81.15
2018-06-25T11:06:08.172Z,81.24
2018-06-25T11:07:08.181Z,81.34
2018-06-25T11:08:08.108Z,81.53
2018-06-25T11:09:08.080Z,81.34
2018-06-25T11:10:08.086Z,81.43
2018-06-25T11:11:08.009Z,80.57
2018-06-25T11:12:07.979Z,80.76
2018-06-25T11:13:07.994Z,80.57
2018-06-25T11:14:07.938Z,80.71
2018-06-25T11:15:07.883Z,80.51
2018-06-25T11:16:07.856Z,80.61
2018-06-25T11:17:07.823Z,80.51
2018-06-25T11:18:07.794Z,80.04
2018-06-25T11:19:07.757Z,81.09
2018-06-25T11:20:07.722Z,80.61
2018-06-25T11:21:07.697Z,80.42
2018-06-25T11:22:07.667Z,80.51
2018-06-25T11:23:07.630Z,79.94
2018-06-25T11:24:07.599Z,79.55
2018-06-25T11:25:07.569Z,79.60
2018-06-25T11:26:07.537Z,79.79
2018-06-25T11:27:08.066Z,79.79
2018-06-25T11:28:07.481Z,79.79
2018-06-25T11:29:07.445Z,79.02
2018-06-25T11:30:07.414Z,79.40
2018-06-25T11:31:07.381Z,78.92
2018-06-25T11:32:07.355Z,78.73
2018-06-25T11:33:07.319Z,78.86
2018-06-25T11:34:07.292Z,79.15
2018-06-25T11:35:07.258Z,79.35
2018-06-25T11:36:07.223Z,79.35
2018-06-25T11:37:07.192Z,79.73
2018-06-25T11:38:07.167Z,79.44
2018-06-25T11:39:07.131Z,79.38
2018-06-25T11:40:07.103Z,78.61
2018-06-25T11:41:07.082Z,78.71
2018-06-25T11:42:07.054Z,78.03
2018-06-25T11:43:07.023Z,77.56
2018-06-25T11:44:06.978Z,76.69
2018-06-25T11:45:06.962Z,76.69
2018-06-25T11:46:06.926Z,76.40
2018-06-25T11:47:06.901Z,76.01
2018-06-25T11:48:06.861Z,75.19
2018-06-25T11:49:06.857Z,75.28
2018-06-25T11:50:06.801Z,72.37
2018-06-25T11:51:06.778Z,67.33
2018-06-25T11:52:06.755Z,63.53
2018-06-25T11:53:06.709Z,60.60
2018-06-25T11:54:06.679Z,58.60
2018-06-25T11:55:06.662Z,57.40
2018-06-25T11:56:06.623Z,55.58
2018-06-25T11:57:06.588Z,54.06
2018-06-25T11:58:06.558Z,52.06
2018-06-25T11:59:06.559Z,51.40
2018-06-25T12:00:06.546Z,49.87
2018-06-25T12:01:06.471Z,49.02
2018-06-25T12:02:06.474Z,48.18
2018-06-25T12:03:06.519Z,47.52
2018-06-25T12:04:06.784Z,46.15
2018-06-25T12:05:06.355Z,45.11
2018-06-25T12:06:06.326Z,45.14
2018-06-25T12:07:06.299Z,44.35
2018-06-25T12:08:06.277Z,44.09
2018-06-25T12:09:06.256Z,43.89
2018-06-25T12:10:06.455Z,43.30
2018-06-25T12:11:06.193Z,43.79
2018-06-25T12:12:06.227Z,43.40
2018-06-25T12:13:06.139Z,43.30
2018-06-25T12:14:06.229Z,43.38
2018-06-25T12:15:06.093Z,44.94
2018-06-25T12:16:06.288Z,44.33
2018-06-25T12:17:06.033Z,45.77
2018-06-25T12:18:06.008Z,46.35
2018-06-25T12:19:06.044Z,47.11
2018-06-25T12:20:05.992Z,48.15
2018-06-25T12:21:05.932Z,48.78
2018-06-25T12:22:06.075Z,49.85
2018-06-25T12:23:05.960Z,50.21
2018-06-25T12:24:05.855Z,51.57
2018-06-25T12:25:05.839Z,52.03
2018-06-25T12:26:05.805Z,52.68
2018-06-25T12:27:05.777Z,53.36
2018-06-25T12:28:05.759Z,53.45
2018-06-25T12:29:05.731Z,53.26
2018-06-25T12:30:05.712Z,54.01
2018-06-25T12:31:05.688Z,54.49
2018-06-25T12:32:05.676Z,54.88
2018-06-25T12:33:05.632Z,55.05
2018-06-25T12:34:05.617Z,55.92
2018-06-25T12:35:05.630Z,55.63
2018-06-25T12:36:05.566Z,55.82
2018-06-25T12:37:05.529Z,55.63
2018-06-25T12:38:05.659Z,56.40
2018-06-25T12:39:05.485Z,56.50
2018-06-25T12:40:05.454Z,56.67
2018-06-25T12:41:05.424Z,56.95
2018-06-25T12:42:05.406Z,56.86
2018-06-25T12:43:05.384Z,56.76
2018-06-25T12:44:05.366Z,56.76
2018-06-25T12:45:05.321Z,56.76
2018-06-25T12:46:05.304Z,56.67
2018-06-25T12:47:05.274Z,56.86
2018-06-25T12:48:05.262Z,56.79
2018-06-25T12:49:05.383Z,56.70
2018-06-25T12:50:05.221Z,56.40
2018-06-25T12:51:05.237Z,56.40
2018-06-25T12:52:05.140Z,55.92
2018-06-25T12:53:05.219Z,56.30
2018-06-25T12:54:05.094Z,57.18
2018-06-25T12:55:05.071Z,57.08
2018-06-25T12:56:05.036Z,56.88
2018-06-25T12:57:05.046Z,56.79
2018-06-25T12:58:05.000Z,56.21
2018-06-25T12:59:04.961Z,56.92
2018-06-25T13:00:04.933Z,55.46